<?xml version="1.0" encoding="UTF-8" standalone="no" ?>
<gpx xmlns="http://www.topografix.com/GPX/1/1" xmlns:xsi="http://www.w3.org/2001/XMLSchema-instance" xsi:schemaLocation="http://www.topografix.com/GPX/1/1 http://www.topografix.com/GPX/1/1/gpx.xsd" version="1.1" creator="VisuGPX - https://www.visugpx.com">
  <metadata>
    <name>2021-02-01 Le Monastrier sur Gazeille</name>
    <desc><![CDATA[Cet après-midi, pas de raquettes, mais une jolie balade vers Le Monastier sur Gazeiile]]></desc>
  </metadata>
  <trk>
    <name><![CDATA[2021-02-01 ESTABLES 2-2]]></name>
    <trkseg>
      <trkpt lat="44.94637" lon="3.98871">
        <ele>956.65</ele>
        <time>2021-02-01T13:47:13Z</time>
      </trkpt>
      <trkpt lat="44.94636" lon="3.9887">
        <ele>956.65</ele>
        <time>2021-02-01T13:47:14Z</time>
      </trkpt>
      <trkpt lat="44.94627" lon="3.98861">
        <ele>953.28</ele>
        <time>2021-02-01T13:47:25Z</time>
      </trkpt>
      <trkpt lat="44.94624" lon="3.98858">
        <ele>951.36</ele>
        <time>2021-02-01T13:47:28Z</time>
      </trkpt>
      <trkpt lat="44.94622" lon="3.98856">
        <ele>949.44</ele>
        <time>2021-02-01T13:47:30Z</time>
      </trkpt>
      <trkpt lat="44.94617" lon="3.98852">
        <ele>946.07</ele>
        <time>2021-02-01T13:47:35Z</time>
      </trkpt>
      <trkpt lat="44.94611" lon="3.98848">
        <ele>942.71</ele>
        <time>2021-02-01T13:47:40Z</time>
      </trkpt>
      <trkpt lat="44.94604" lon="3.98844">
        <ele>939.35</ele>
        <time>2021-02-01T13:47:46Z</time>
      </trkpt>
      <trkpt lat="44.94597" lon="3.9884">
        <ele>935.98</ele>
        <time>2021-02-01T13:47:53Z</time>
      </trkpt>
      <trkpt lat="44.94591" lon="3.98838">
        <ele>933.58</ele>
        <time>2021-02-01T13:47:58Z</time>
      </trkpt>
      <trkpt lat="44.94584" lon="3.98834">
        <ele>931.65</ele>
        <time>2021-02-01T13:48:04Z</time>
      </trkpt>
      <trkpt lat="44.94573" lon="3.98828">
        <ele>928.29</ele>
        <time>2021-02-01T13:48:13Z</time>
      </trkpt>
      <trkpt lat="44.94564" lon="3.98823">
        <ele>925.41</ele>
        <time>2021-02-01T13:48:20Z</time>
      </trkpt>
      <trkpt lat="44.94558" lon="3.9882">
        <ele>924.93</ele>
        <time>2021-02-01T13:48:25Z</time>
      </trkpt>
      <trkpt lat="44.94542" lon="3.98813">
        <ele>921.56</ele>
        <time>2021-02-01T13:48:39Z</time>
      </trkpt>
      <trkpt lat="44.94527" lon="3.9881">
        <ele>918.68</ele>
        <time>2021-02-01T13:48:52Z</time>
      </trkpt>
      <trkpt lat="44.94508" lon="3.98808">
        <ele>915.31</ele>
        <time>2021-02-01T13:49:07Z</time>
      </trkpt>
      <trkpt lat="44.94482" lon="3.98803">
        <ele>912.91</ele>
        <time>2021-02-01T13:49:27Z</time>
      </trkpt>
      <trkpt lat="44.94454" lon="3.98786">
        <ele>912.43</ele>
        <time>2021-02-01T13:49:49Z</time>
      </trkpt>
      <trkpt lat="44.94435" lon="3.98758">
        <ele>911.95</ele>
        <time>2021-02-01T13:50:11Z</time>
      </trkpt>
      <trkpt lat="44.9443" lon="3.98728">
        <ele>912.43</ele>
        <time>2021-02-01T13:50:31Z</time>
      </trkpt>
      <trkpt lat="44.9442" lon="3.98703">
        <ele>913.87</ele>
        <time>2021-02-01T13:50:50Z</time>
      </trkpt>
      <trkpt lat="44.94401" lon="3.9868">
        <ele>915.79</ele>
        <time>2021-02-01T13:51:11Z</time>
      </trkpt>
      <trkpt lat="44.9439" lon="3.98657">
        <ele>916.27</ele>
        <time>2021-02-01T13:51:29Z</time>
      </trkpt>
      <trkpt lat="44.94384" lon="3.98629">
        <ele>917.24</ele>
        <time>2021-02-01T13:51:48Z</time>
      </trkpt>
      <trkpt lat="44.94379" lon="3.98606">
        <ele>918.2</ele>
        <time>2021-02-01T13:52:04Z</time>
      </trkpt>
      <trkpt lat="44.94372" lon="3.98583">
        <ele>919.16</ele>
        <time>2021-02-01T13:52:23Z</time>
      </trkpt>
      <trkpt lat="44.9437" lon="3.9858">
        <ele>919.16</ele>
        <time>2021-02-01T13:52:42Z</time>
      </trkpt>
      <trkpt lat="44.94366" lon="3.98566">
        <ele>919.16</ele>
        <time>2021-02-01T13:53:03Z</time>
      </trkpt>
      <trkpt lat="44.94365" lon="3.98563">
        <ele>917.72</ele>
        <time>2021-02-01T13:53:05Z</time>
      </trkpt>
      <trkpt lat="44.9436" lon="3.98543">
        <ele>917.72</ele>
        <time>2021-02-01T13:53:21Z</time>
      </trkpt>
      <trkpt lat="44.94353" lon="3.98515">
        <ele>917.72</ele>
        <time>2021-02-01T13:53:38Z</time>
      </trkpt>
      <trkpt lat="44.94346" lon="3.98484">
        <ele>916.27</ele>
        <time>2021-02-01T13:53:59Z</time>
      </trkpt>
      <trkpt lat="44.94347" lon="3.98485">
        <ele>916.27</ele>
        <time>2021-02-01T13:54:25Z</time>
      </trkpt>
      <trkpt lat="44.94347" lon="3.98479">
        <ele>915.79</ele>
        <time>2021-02-01T13:55:06Z</time>
      </trkpt>
      <trkpt lat="44.94344" lon="3.9848">
        <ele>915.79</ele>
        <time>2021-02-01T13:55:33Z</time>
      </trkpt>
      <trkpt lat="44.94342" lon="3.98482">
        <ele>915.31</ele>
        <time>2021-02-01T13:55:58Z</time>
      </trkpt>
      <trkpt lat="44.94343" lon="3.98479">
        <ele>915.79</ele>
        <time>2021-02-01T13:56:32Z</time>
      </trkpt>
      <trkpt lat="44.94342" lon="3.98478">
        <ele>915.79</ele>
        <time>2021-02-01T13:57:18Z</time>
      </trkpt>
      <trkpt lat="44.94342" lon="3.98455">
        <ele>915.79</ele>
        <time>2021-02-01T13:57:36Z</time>
      </trkpt>
      <trkpt lat="44.94342" lon="3.98448">
        <ele>915.79</ele>
        <time>2021-02-01T13:57:41Z</time>
      </trkpt>
      <trkpt lat="44.94339" lon="3.98425">
        <ele>913.87</ele>
        <time>2021-02-01T13:57:57Z</time>
      </trkpt>
      <trkpt lat="44.94326" lon="3.98403">
        <ele>913.39</ele>
        <time>2021-02-01T13:58:15Z</time>
      </trkpt>
      <trkpt lat="44.94316" lon="3.98387">
        <ele>912.91</ele>
        <time>2021-02-01T13:58:30Z</time>
      </trkpt>
      <trkpt lat="44.94309" lon="3.98369">
        <ele>912.91</ele>
        <time>2021-02-01T13:58:45Z</time>
      </trkpt>
      <trkpt lat="44.94302" lon="3.98344">
        <ele>910.03</ele>
        <time>2021-02-01T13:59:02Z</time>
      </trkpt>
      <trkpt lat="44.94293" lon="3.98321">
        <ele>909.54</ele>
        <time>2021-02-01T13:59:19Z</time>
      </trkpt>
      <trkpt lat="44.94288" lon="3.9831">
        <ele>908.58</ele>
        <time>2021-02-01T13:59:33Z</time>
      </trkpt>
      <trkpt lat="44.94286" lon="3.98284">
        <ele>907.14</ele>
        <time>2021-02-01T13:59:49Z</time>
      </trkpt>
      <trkpt lat="44.94286" lon="3.9825">
        <ele>909.06</ele>
        <time>2021-02-01T14:00:08Z</time>
      </trkpt>
      <trkpt lat="44.94282" lon="3.98226">
        <ele>911.47</ele>
        <time>2021-02-01T14:00:25Z</time>
      </trkpt>
      <trkpt lat="44.94281" lon="3.98204">
        <ele>912.91</ele>
        <time>2021-02-01T14:00:41Z</time>
      </trkpt>
      <trkpt lat="44.94282" lon="3.98189">
        <ele>914.35</ele>
        <time>2021-02-01T14:00:51Z</time>
      </trkpt>
      <trkpt lat="44.94281" lon="3.98183">
        <ele>914.35</ele>
        <time>2021-02-01T14:00:55Z</time>
      </trkpt>
      <trkpt lat="44.94278" lon="3.98156">
        <ele>914.35</ele>
        <time>2021-02-01T14:01:14Z</time>
      </trkpt>
      <trkpt lat="44.94278" lon="3.9815">
        <ele>914.35</ele>
        <time>2021-02-01T14:01:29Z</time>
      </trkpt>
      <trkpt lat="44.94278" lon="3.98148">
        <ele>914.35</ele>
        <time>2021-02-01T14:01:51Z</time>
      </trkpt>
      <trkpt lat="44.94279" lon="3.98144">
        <ele>914.35</ele>
        <time>2021-02-01T14:02:12Z</time>
      </trkpt>
      <trkpt lat="44.94283" lon="3.98139">
        <ele>914.35</ele>
        <time>2021-02-01T14:02:38Z</time>
      </trkpt>
      <trkpt lat="44.94294" lon="3.98128">
        <ele>915.79</ele>
        <time>2021-02-01T14:02:56Z</time>
      </trkpt>
      <trkpt lat="44.94301" lon="3.98122">
        <ele>916.75</ele>
        <time>2021-02-01T14:03:05Z</time>
      </trkpt>
      <trkpt lat="44.94313" lon="3.98106">
        <ele>917.24</ele>
        <time>2021-02-01T14:03:21Z</time>
      </trkpt>
      <trkpt lat="44.94325" lon="3.98082">
        <ele>917.72</ele>
        <time>2021-02-01T14:03:40Z</time>
      </trkpt>
      <trkpt lat="44.94334" lon="3.9806">
        <ele>918.68</ele>
        <time>2021-02-01T14:03:58Z</time>
      </trkpt>
      <trkpt lat="44.94351" lon="3.98041">
        <ele>919.16</ele>
        <time>2021-02-01T14:04:18Z</time>
      </trkpt>
      <trkpt lat="44.94364" lon="3.98023">
        <ele>919.64</ele>
        <time>2021-02-01T14:04:35Z</time>
      </trkpt>
      <trkpt lat="44.94365" lon="3.97999">
        <ele>919.64</ele>
        <time>2021-02-01T14:04:51Z</time>
      </trkpt>
      <trkpt lat="44.94364" lon="3.97977">
        <ele>919.64</ele>
        <time>2021-02-01T14:05:04Z</time>
      </trkpt>
      <trkpt lat="44.94368" lon="3.97955">
        <ele>919.64</ele>
        <time>2021-02-01T14:05:21Z</time>
      </trkpt>
      <trkpt lat="44.94371" lon="3.97929">
        <ele>919.64</ele>
        <time>2021-02-01T14:05:37Z</time>
      </trkpt>
      <trkpt lat="44.94371" lon="3.97907">
        <ele>920.12</ele>
        <time>2021-02-01T14:05:52Z</time>
      </trkpt>
      <trkpt lat="44.94372" lon="3.97894">
        <ele>920.12</ele>
        <time>2021-02-01T14:06:08Z</time>
      </trkpt>
      <trkpt lat="44.94372" lon="3.97894">
        <ele>920.6</ele>
        <time>2021-02-01T14:06:39Z</time>
      </trkpt>
      <trkpt lat="44.94372" lon="3.97894">
        <ele>920.6</ele>
        <time>2021-02-01T14:07:05Z</time>
      </trkpt>
      <trkpt lat="44.94372" lon="3.97892">
        <ele>920.6</ele>
        <time>2021-02-01T14:07:41Z</time>
      </trkpt>
      <trkpt lat="44.94373" lon="3.97885">
        <ele>920.6</ele>
        <time>2021-02-01T14:08:15Z</time>
      </trkpt>
      <trkpt lat="44.94374" lon="3.97871">
        <ele>921.56</ele>
        <time>2021-02-01T14:08:35Z</time>
      </trkpt>
      <trkpt lat="44.94379" lon="3.97857">
        <ele>923.96</ele>
        <time>2021-02-01T14:08:52Z</time>
      </trkpt>
      <trkpt lat="44.94386" lon="3.97844">
        <ele>924.93</ele>
        <time>2021-02-01T14:09:06Z</time>
      </trkpt>
      <trkpt lat="44.94392" lon="3.97833">
        <ele>925.89</ele>
        <time>2021-02-01T14:09:21Z</time>
      </trkpt>
      <trkpt lat="44.94396" lon="3.97823">
        <ele>926.85</ele>
        <time>2021-02-01T14:09:35Z</time>
      </trkpt>
      <trkpt lat="44.94403" lon="3.97813">
        <ele>929.25</ele>
        <time>2021-02-01T14:09:51Z</time>
      </trkpt>
      <trkpt lat="44.94414" lon="3.97802">
        <ele>929.73</ele>
        <time>2021-02-01T14:10:05Z</time>
      </trkpt>
      <trkpt lat="44.94426" lon="3.97785">
        <ele>930.69</ele>
        <time>2021-02-01T14:10:20Z</time>
      </trkpt>
      <trkpt lat="44.94432" lon="3.97775">
        <ele>932.14</ele>
        <time>2021-02-01T14:10:35Z</time>
      </trkpt>
      <trkpt lat="44.94436" lon="3.97759">
        <ele>933.58</ele>
        <time>2021-02-01T14:10:49Z</time>
      </trkpt>
      <trkpt lat="44.94438" lon="3.97744">
        <ele>935.02</ele>
        <time>2021-02-01T14:11:04Z</time>
      </trkpt>
      <trkpt lat="44.94444" lon="3.97728">
        <ele>935.98</ele>
        <time>2021-02-01T14:11:19Z</time>
      </trkpt>
      <trkpt lat="44.94449" lon="3.97708">
        <ele>937.42</ele>
        <time>2021-02-01T14:11:36Z</time>
      </trkpt>
      <trkpt lat="44.94454" lon="3.97682">
        <ele>937.9</ele>
        <time>2021-02-01T14:11:53Z</time>
      </trkpt>
      <trkpt lat="44.94458" lon="3.97665">
        <ele>938.38</ele>
        <time>2021-02-01T14:12:07Z</time>
      </trkpt>
      <trkpt lat="44.94458" lon="3.97648">
        <ele>940.31</ele>
        <time>2021-02-01T14:12:24Z</time>
      </trkpt>
      <trkpt lat="44.94458" lon="3.97633">
        <ele>941.75</ele>
        <time>2021-02-01T14:12:38Z</time>
      </trkpt>
      <trkpt lat="44.94457" lon="3.97614">
        <ele>943.67</ele>
        <time>2021-02-01T14:12:54Z</time>
      </trkpt>
      <trkpt lat="44.9446" lon="3.97609">
        <ele>943.67</ele>
        <time>2021-02-01T14:13:14Z</time>
      </trkpt>
      <trkpt lat="44.94459" lon="3.9761">
        <ele>944.15</ele>
        <time>2021-02-01T14:13:46Z</time>
      </trkpt>
      <trkpt lat="44.9446" lon="3.97611">
        <ele>944.15</ele>
        <time>2021-02-01T14:14:10Z</time>
      </trkpt>
      <trkpt lat="44.94463" lon="3.97609">
        <ele>944.15</ele>
        <time>2021-02-01T14:14:47Z</time>
      </trkpt>
      <trkpt lat="44.94458" lon="3.97607">
        <ele>944.63</ele>
        <time>2021-02-01T14:15:24Z</time>
      </trkpt>
      <trkpt lat="44.94458" lon="3.97606">
        <ele>944.63</ele>
        <time>2021-02-01T14:15:59Z</time>
      </trkpt>
      <trkpt lat="44.94457" lon="3.97607">
        <ele>944.63</ele>
        <time>2021-02-01T14:16:38Z</time>
      </trkpt>
      <trkpt lat="44.94459" lon="3.97608">
        <ele>945.11</ele>
        <time>2021-02-01T14:17:16Z</time>
      </trkpt>
      <trkpt lat="44.94457" lon="3.97607">
        <ele>945.11</ele>
        <time>2021-02-01T14:18:01Z</time>
      </trkpt>
      <trkpt lat="44.94459" lon="3.97608">
        <ele>945.11</ele>
        <time>2021-02-01T14:18:33Z</time>
      </trkpt>
      <trkpt lat="44.9446" lon="3.97608">
        <ele>945.11</ele>
        <time>2021-02-01T14:19:01Z</time>
      </trkpt>
      <trkpt lat="44.94459" lon="3.97607">
        <ele>945.11</ele>
        <time>2021-02-01T14:19:25Z</time>
      </trkpt>
      <trkpt lat="44.94457" lon="3.97609">
        <ele>944.15</ele>
        <time>2021-02-01T14:19:49Z</time>
      </trkpt>
      <trkpt lat="44.94462" lon="3.97615">
        <ele>945.59</ele>
        <time>2021-02-01T14:20:03Z</time>
      </trkpt>
      <trkpt lat="44.94473" lon="3.97632">
        <ele>946.56</ele>
        <time>2021-02-01T14:20:22Z</time>
      </trkpt>
      <trkpt lat="44.94494" lon="3.97639">
        <ele>948</ele>
        <time>2021-02-01T14:20:41Z</time>
      </trkpt>
      <trkpt lat="44.94516" lon="3.97638">
        <ele>948.48</ele>
        <time>2021-02-01T14:21:02Z</time>
      </trkpt>
      <trkpt lat="44.94533" lon="3.97628">
        <ele>949.92</ele>
        <time>2021-02-01T14:21:20Z</time>
      </trkpt>
      <trkpt lat="44.94532" lon="3.97605">
        <ele>950.88</ele>
        <time>2021-02-01T14:21:38Z</time>
      </trkpt>
      <trkpt lat="44.94533" lon="3.97569">
        <ele>951.84</ele>
        <time>2021-02-01T14:22:00Z</time>
      </trkpt>
      <trkpt lat="44.94529" lon="3.97531">
        <ele>952.8</ele>
        <time>2021-02-01T14:22:24Z</time>
      </trkpt>
      <trkpt lat="44.9453" lon="3.97507">
        <ele>954.73</ele>
        <time>2021-02-01T14:22:42Z</time>
      </trkpt>
      <trkpt lat="44.94534" lon="3.97477">
        <ele>956.65</ele>
        <time>2021-02-01T14:23:02Z</time>
      </trkpt>
      <trkpt lat="44.94536" lon="3.97461">
        <ele>958.09</ele>
        <time>2021-02-01T14:23:13Z</time>
      </trkpt>
      <trkpt lat="44.94539" lon="3.97427">
        <ele>960.01</ele>
        <time>2021-02-01T14:23:31Z</time>
      </trkpt>
      <trkpt lat="44.94543" lon="3.97395">
        <ele>962.42</ele>
        <time>2021-02-01T14:23:51Z</time>
      </trkpt>
      <trkpt lat="44.94548" lon="3.97366">
        <ele>964.34</ele>
        <time>2021-02-01T14:24:11Z</time>
      </trkpt>
      <trkpt lat="44.94553" lon="3.97343">
        <ele>965.78</ele>
        <time>2021-02-01T14:24:28Z</time>
      </trkpt>
      <trkpt lat="44.9456" lon="3.97315">
        <ele>966.74</ele>
        <time>2021-02-01T14:24:48Z</time>
      </trkpt>
      <trkpt lat="44.94568" lon="3.97297">
        <ele>968.67</ele>
        <time>2021-02-01T14:25:07Z</time>
      </trkpt>
      <trkpt lat="44.94574" lon="3.97288">
        <ele>970.11</ele>
        <time>2021-02-01T14:25:22Z</time>
      </trkpt>
      <trkpt lat="44.94581" lon="3.97267">
        <ele>973.47</ele>
        <time>2021-02-01T14:25:42Z</time>
      </trkpt>
      <trkpt lat="44.94585" lon="3.97242">
        <ele>975.88</ele>
        <time>2021-02-01T14:26:04Z</time>
      </trkpt>
      <trkpt lat="44.94586" lon="3.97234">
        <ele>976.36</ele>
        <time>2021-02-01T14:26:10Z</time>
      </trkpt>
      <trkpt lat="44.94588" lon="3.97215">
        <ele>978.76</ele>
        <time>2021-02-01T14:26:27Z</time>
      </trkpt>
      <trkpt lat="44.94594" lon="3.97203">
        <ele>978.76</ele>
        <time>2021-02-01T14:26:45Z</time>
      </trkpt>
      <trkpt lat="44.94595" lon="3.97201">
        <ele>980.68</ele>
        <time>2021-02-01T14:27:03Z</time>
      </trkpt>
      <trkpt lat="44.94594" lon="3.97201">
        <ele>979.24</ele>
        <time>2021-02-01T14:27:36Z</time>
      </trkpt>
      <trkpt lat="44.9459" lon="3.97199">
        <ele>978.76</ele>
        <time>2021-02-01T14:27:56Z</time>
      </trkpt>
      <trkpt lat="44.9459" lon="3.97201">
        <ele>978.76</ele>
        <time>2021-02-01T14:28:25Z</time>
      </trkpt>
      <trkpt lat="44.94593" lon="3.972">
        <ele>978.76</ele>
        <time>2021-02-01T14:28:50Z</time>
      </trkpt>
      <trkpt lat="44.94597" lon="3.972">
        <ele>980.2</ele>
        <time>2021-02-01T14:29:12Z</time>
      </trkpt>
      <trkpt lat="44.94594" lon="3.97201">
        <ele>980.68</ele>
        <time>2021-02-01T14:29:46Z</time>
      </trkpt>
      <trkpt lat="44.94596" lon="3.972">
        <ele>980.68</ele>
        <time>2021-02-01T14:30:29Z</time>
      </trkpt>
      <trkpt lat="44.94596" lon="3.97199">
        <ele>980.68</ele>
        <time>2021-02-01T14:31:08Z</time>
      </trkpt>
      <trkpt lat="44.94595" lon="3.972">
        <ele>980.68</ele>
        <time>2021-02-01T14:31:42Z</time>
      </trkpt>
      <trkpt lat="44.94595" lon="3.97201">
        <ele>980.68</ele>
        <time>2021-02-01T14:32:27Z</time>
      </trkpt>
      <trkpt lat="44.94594" lon="3.97201">
        <ele>980.68</ele>
        <time>2021-02-01T14:33:15Z</time>
      </trkpt>
      <trkpt lat="44.94594" lon="3.97201">
        <ele>980.68</ele>
        <time>2021-02-01T14:33:52Z</time>
      </trkpt>
      <trkpt lat="44.94595" lon="3.972">
        <ele>980.68</ele>
        <time>2021-02-01T14:34:27Z</time>
      </trkpt>
      <trkpt lat="44.94594" lon="3.97197">
        <ele>981.16</ele>
        <time>2021-02-01T14:34:55Z</time>
      </trkpt>
      <trkpt lat="44.94595" lon="3.97197">
        <ele>981.16</ele>
        <time>2021-02-01T14:35:29Z</time>
      </trkpt>
      <trkpt lat="44.94597" lon="3.97199">
        <ele>981.16</ele>
        <time>2021-02-01T14:35:41Z</time>
      </trkpt>
      <trkpt lat="44.94601" lon="3.97212">
        <ele>981.16</ele>
        <time>2021-02-01T14:36:00Z</time>
      </trkpt>
      <trkpt lat="44.94603" lon="3.97239">
        <ele>982.12</ele>
        <time>2021-02-01T14:36:24Z</time>
      </trkpt>
      <trkpt lat="44.94598" lon="3.97269">
        <ele>980.68</ele>
        <time>2021-02-01T14:36:44Z</time>
      </trkpt>
      <trkpt lat="44.94592" lon="3.97296">
        <ele>980.68</ele>
        <time>2021-02-01T14:37:02Z</time>
      </trkpt>
      <trkpt lat="44.94588" lon="3.97333">
        <ele>982.12</ele>
        <time>2021-02-01T14:37:26Z</time>
      </trkpt>
      <trkpt lat="44.94589" lon="3.9736">
        <ele>983.57</ele>
        <time>2021-02-01T14:37:45Z</time>
      </trkpt>
      <trkpt lat="44.94594" lon="3.97392">
        <ele>985.01</ele>
        <time>2021-02-01T14:38:07Z</time>
      </trkpt>
      <trkpt lat="44.94595" lon="3.97425">
        <ele>986.45</ele>
        <time>2021-02-01T14:38:28Z</time>
      </trkpt>
      <trkpt lat="44.94597" lon="3.97442">
        <ele>986.45</ele>
        <time>2021-02-01T14:38:39Z</time>
      </trkpt>
      <trkpt lat="44.94603" lon="3.97481">
        <ele>988.37</ele>
        <time>2021-02-01T14:39:02Z</time>
      </trkpt>
      <trkpt lat="44.94608" lon="3.9752">
        <ele>986.45</ele>
        <time>2021-02-01T14:39:26Z</time>
      </trkpt>
      <trkpt lat="44.9461" lon="3.97556">
        <ele>988.37</ele>
        <time>2021-02-01T14:39:48Z</time>
      </trkpt>
      <trkpt lat="44.94611" lon="3.9757">
        <ele>987.41</ele>
        <time>2021-02-01T14:39:57Z</time>
      </trkpt>
      <trkpt lat="44.94617" lon="3.9761">
        <ele>988.37</ele>
        <time>2021-02-01T14:40:22Z</time>
      </trkpt>
      <trkpt lat="44.94621" lon="3.97644">
        <ele>989.81</ele>
        <time>2021-02-01T14:40:44Z</time>
      </trkpt>
      <trkpt lat="44.9462" lon="3.97648">
        <ele>989.81</ele>
        <time>2021-02-01T14:40:48Z</time>
      </trkpt>
      <trkpt lat="44.94617" lon="3.97655">
        <ele>989.81</ele>
        <time>2021-02-01T14:40:54Z</time>
      </trkpt>
      <trkpt lat="44.94613" lon="3.97668">
        <ele>990.78</ele>
        <time>2021-02-01T14:41:12Z</time>
      </trkpt>
      <trkpt lat="44.94612" lon="3.97669">
        <ele>990.78</ele>
        <time>2021-02-01T14:41:44Z</time>
      </trkpt>
      <trkpt lat="44.9461" lon="3.9767">
        <ele>990.78</ele>
        <time>2021-02-01T14:42:19Z</time>
      </trkpt>
      <trkpt lat="44.9461" lon="3.97676">
        <ele>990.78</ele>
        <time>2021-02-01T14:42:46Z</time>
      </trkpt>
      <trkpt lat="44.94611" lon="3.97677">
        <ele>989.33</ele>
        <time>2021-02-01T14:42:53Z</time>
      </trkpt>
      <trkpt lat="44.94616" lon="3.97685">
        <ele>989.33</ele>
        <time>2021-02-01T14:43:11Z</time>
      </trkpt>
      <trkpt lat="44.94623" lon="3.9769">
        <ele>989.33</ele>
        <time>2021-02-01T14:43:38Z</time>
      </trkpt>
      <trkpt lat="44.94627" lon="3.97709">
        <ele>989.33</ele>
        <time>2021-02-01T14:43:55Z</time>
      </trkpt>
      <trkpt lat="44.94629" lon="3.97729">
        <ele>988.85</ele>
        <time>2021-02-01T14:44:08Z</time>
      </trkpt>
      <trkpt lat="44.94629" lon="3.97742">
        <ele>988.85</ele>
        <time>2021-02-01T14:44:17Z</time>
      </trkpt>
      <trkpt lat="44.9463" lon="3.97767">
        <ele>988.37</ele>
        <time>2021-02-01T14:44:36Z</time>
      </trkpt>
      <trkpt lat="44.94629" lon="3.97796">
        <ele>988.37</ele>
        <time>2021-02-01T14:44:58Z</time>
      </trkpt>
      <trkpt lat="44.94628" lon="3.97829">
        <ele>988.37</ele>
        <time>2021-02-01T14:45:20Z</time>
      </trkpt>
      <trkpt lat="44.94627" lon="3.97856">
        <ele>988.37</ele>
        <time>2021-02-01T14:45:39Z</time>
      </trkpt>
      <trkpt lat="44.94626" lon="3.97858">
        <ele>988.37</ele>
        <time>2021-02-01T14:45:40Z</time>
      </trkpt>
      <trkpt lat="44.94623" lon="3.97885">
        <ele>989.33</ele>
        <time>2021-02-01T14:45:55Z</time>
      </trkpt>
      <trkpt lat="44.94618" lon="3.97914">
        <ele>989.81</ele>
        <time>2021-02-01T14:46:14Z</time>
      </trkpt>
      <trkpt lat="44.94617" lon="3.97944">
        <ele>989.81</ele>
        <time>2021-02-01T14:46:34Z</time>
      </trkpt>
      <trkpt lat="44.94618" lon="3.97956">
        <ele>991.26</ele>
        <time>2021-02-01T14:46:53Z</time>
      </trkpt>
      <trkpt lat="44.94617" lon="3.97961">
        <ele>989.81</ele>
        <time>2021-02-01T14:47:03Z</time>
      </trkpt>
      <trkpt lat="44.94616" lon="3.97988">
        <ele>991.26</ele>
        <time>2021-02-01T14:47:23Z</time>
      </trkpt>
      <trkpt lat="44.94614" lon="3.98014">
        <ele>991.74</ele>
        <time>2021-02-01T14:47:44Z</time>
      </trkpt>
      <trkpt lat="44.94615" lon="3.98038">
        <ele>992.22</ele>
        <time>2021-02-01T14:48:06Z</time>
      </trkpt>
      <trkpt lat="44.94613" lon="3.98065">
        <ele>992.22</ele>
        <time>2021-02-01T14:48:26Z</time>
      </trkpt>
      <trkpt lat="44.94609" lon="3.9809">
        <ele>992.22</ele>
        <time>2021-02-01T14:48:46Z</time>
      </trkpt>
      <trkpt lat="44.94608" lon="3.98125">
        <ele>993.18</ele>
        <time>2021-02-01T14:49:07Z</time>
      </trkpt>
      <trkpt lat="44.94611" lon="3.98147">
        <ele>993.18</ele>
        <time>2021-02-01T14:49:23Z</time>
      </trkpt>
      <trkpt lat="44.94612" lon="3.98175">
        <ele>992.22</ele>
        <time>2021-02-01T14:49:43Z</time>
      </trkpt>
      <trkpt lat="44.94613" lon="3.9819">
        <ele>991.74</ele>
        <time>2021-02-01T14:50:02Z</time>
      </trkpt>
      <trkpt lat="44.94612" lon="3.98192">
        <ele>991.74</ele>
        <time>2021-02-01T14:50:27Z</time>
      </trkpt>
      <trkpt lat="44.94613" lon="3.9819">
        <ele>991.74</ele>
        <time>2021-02-01T14:50:58Z</time>
      </trkpt>
      <trkpt lat="44.94616" lon="3.98192">
        <ele>992.22</ele>
        <time>2021-02-01T14:51:38Z</time>
      </trkpt>
      <trkpt lat="44.94613" lon="3.98193">
        <ele>992.22</ele>
        <time>2021-02-01T14:52:08Z</time>
      </trkpt>
      <trkpt lat="44.94613" lon="3.98194">
        <ele>992.22</ele>
        <time>2021-02-01T14:52:46Z</time>
      </trkpt>
      <trkpt lat="44.9462" lon="3.98211">
        <ele>989.81</ele>
        <time>2021-02-01T14:53:04Z</time>
      </trkpt>
      <trkpt lat="44.94628" lon="3.98234">
        <ele>985.97</ele>
        <time>2021-02-01T14:53:20Z</time>
      </trkpt>
      <trkpt lat="44.94639" lon="3.98245">
        <ele>984.05</ele>
        <time>2021-02-01T14:53:37Z</time>
      </trkpt>
      <trkpt lat="44.94639" lon="3.98248">
        <ele>982.6</ele>
        <time>2021-02-01T14:53:40Z</time>
      </trkpt>
      <trkpt lat="44.94645" lon="3.98258">
        <ele>980.2</ele>
        <time>2021-02-01T14:53:57Z</time>
      </trkpt>
      <trkpt lat="44.94651" lon="3.98269">
        <ele>976.84</ele>
        <time>2021-02-01T14:54:13Z</time>
      </trkpt>
      <trkpt lat="44.94663" lon="3.98279">
        <ele>973.47</ele>
        <time>2021-02-01T14:54:30Z</time>
      </trkpt>
      <trkpt lat="44.94666" lon="3.98301">
        <ele>970.11</ele>
        <time>2021-02-01T14:54:47Z</time>
      </trkpt>
      <trkpt lat="44.94669" lon="3.98321">
        <ele>966.74</ele>
        <time>2021-02-01T14:55:06Z</time>
      </trkpt>
      <trkpt lat="44.9467" lon="3.98342">
        <ele>964.34</ele>
        <time>2021-02-01T14:55:27Z</time>
      </trkpt>
      <trkpt lat="44.9467" lon="3.98357">
        <ele>960.98</ele>
        <time>2021-02-01T14:55:43Z</time>
      </trkpt>
      <trkpt lat="44.9467" lon="3.98374">
        <ele>958.57</ele>
        <time>2021-02-01T14:56:04Z</time>
      </trkpt>
      <trkpt lat="44.94669" lon="3.9839">
        <ele>955.21</ele>
        <time>2021-02-01T14:56:19Z</time>
      </trkpt>
      <trkpt lat="44.94667" lon="3.98409">
        <ele>951.36</ele>
        <time>2021-02-01T14:56:35Z</time>
      </trkpt>
      <trkpt lat="44.9467" lon="3.98435">
        <ele>948.96</ele>
        <time>2021-02-01T14:56:54Z</time>
      </trkpt>
      <trkpt lat="44.94684" lon="3.98457">
        <ele>945.11</ele>
        <time>2021-02-01T14:57:14Z</time>
      </trkpt>
      <trkpt lat="44.94688" lon="3.98476">
        <ele>941.27</ele>
        <time>2021-02-01T14:57:33Z</time>
      </trkpt>
      <trkpt lat="44.94688" lon="3.98477">
        <ele>941.27</ele>
        <time>2021-02-01T14:57:34Z</time>
      </trkpt>
      <trkpt lat="44.9468" lon="3.98502">
        <ele>937.9</ele>
        <time>2021-02-01T14:57:54Z</time>
      </trkpt>
      <trkpt lat="44.94674" lon="3.98526">
        <ele>936.46</ele>
        <time>2021-02-01T14:58:12Z</time>
      </trkpt>
      <trkpt lat="44.9467" lon="3.98558">
        <ele>933.58</ele>
        <time>2021-02-01T14:58:33Z</time>
      </trkpt>
      <trkpt lat="44.94668" lon="3.98583">
        <ele>932.14</ele>
        <time>2021-02-01T14:58:53Z</time>
      </trkpt>
      <trkpt lat="44.94669" lon="3.98607">
        <ele>931.17</ele>
        <time>2021-02-01T14:59:13Z</time>
      </trkpt>
      <trkpt lat="44.9467" lon="3.98617">
        <ele>931.17</ele>
        <time>2021-02-01T14:59:30Z</time>
      </trkpt>
      <trkpt lat="44.94675" lon="3.98647">
        <ele>930.69</ele>
        <time>2021-02-01T14:59:50Z</time>
      </trkpt>
      <trkpt lat="44.94683" lon="3.98683">
        <ele>929.25</ele>
        <time>2021-02-01T15:00:13Z</time>
      </trkpt>
      <trkpt lat="44.94689" lon="3.98716">
        <ele>928.77</ele>
        <time>2021-02-01T15:00:36Z</time>
      </trkpt>
      <trkpt lat="44.94694" lon="3.98755">
        <ele>928.77</ele>
        <time>2021-02-01T15:00:56Z</time>
      </trkpt>
      <trkpt lat="44.94689" lon="3.98787">
        <ele>929.25</ele>
        <time>2021-02-01T15:01:16Z</time>
      </trkpt>
      <trkpt lat="44.9468" lon="3.98825">
        <ele>927.81</ele>
        <time>2021-02-01T15:01:41Z</time>
      </trkpt>
      <trkpt lat="44.9467" lon="3.98862">
        <ele>927.33</ele>
        <time>2021-02-01T15:02:06Z</time>
      </trkpt>
      <trkpt lat="44.9467" lon="3.9887">
        <ele>927.33</ele>
        <time>2021-02-01T15:02:12Z</time>
      </trkpt>
      <trkpt lat="44.94673" lon="3.98907">
        <ele>926.85</ele>
        <time>2021-02-01T15:02:34Z</time>
      </trkpt>
      <trkpt lat="44.94677" lon="3.98918">
        <ele>928.29</ele>
        <time>2021-02-01T15:02:50Z</time>
      </trkpt>
      <trkpt lat="44.94677" lon="3.98918">
        <ele>928.29</ele>
        <time>2021-02-01T15:02:55Z</time>
      </trkpt>
    </trkseg>
  </trk>
</gpx>